Time;durP1;ratioP1;P1;durP2;ratioP2;P2;SDS_P1;SDS_P2;PMS_P1;PMS_P2;Temp;Humidity;BMP_temperature;BMP_pressure;BME280_temperature;BME280_humidity;BME280_pressure;Samples;Min_cycle;Max_cycle;Signal;HPM_P1;HPM_P2
2021/12/04 00:01:11;;;;;;;9.30;7.10;;;0.00;99.90;;;;;;4976903;28;20178;-87
2021/12/04 00:03:41;;;;;;;9.73;6.67;;;0.10;99.90;;;;;;4994303;28;20611;-88
2021/12/04 00:06:18;;;;;;;8.77;6.30;;;0.00;99.90;;;;;;4994372;28;20652;-87
2021/12/04 00:08:46;;;;;;;7.63;6.53;;;0.00;99.90;;;;;;4976825;28;20177;-87
2021/12/04 00:11:13;;;;;;;6.47;5.67;;;-0.10;99.90;;;;;;4976758;28;20186;-88
2021/12/04 00:13:38;;;;;;;9.23;5.33;;;-0.30;99.90;;;;;;4994412;28;20642;-86
2021/12/04 00:16:04;;;;;;;6.27;5.20;;;-0.30;99.90;;;;;;4993894;28;20182;-86
2021/12/04 00:18:30;;;;;;;8.80;5.20;;;-0.50;99.90;;;;;;4994262;28;20273;-89
2021/12/04 00:20:56;;;;;;;7.43;4.83;;;-0.70;99.90;;;;;;4994220;28;20648;-86
2021/12/04 00:23:22;;;;;;;9.90;4.67;;;-0.70;99.90;;;;;;4976475;28;20206;-89
2021/12/04 00:25:48;;;;;;;6.40;4.40;;;-0.70;99.90;;;;;;4976616;28;20658;-89
2021/12/04 00:28:14;;;;;;;4.63;4.03;;;-0.60;99.90;;;;;;4994188;28;20239;-89
2021/12/04 00:30:39;;;;;;;4.40;3.80;;;-0.70;99.90;;;;;;4993878;28;20186;-88
2021/12/04 00:33:29;;;;;;;4.23;3.83;;;-0.70;99.90;;;;;;4976443;28;20194;-89
2021/12/04 00:36:06;;;;;;;4.67;4.23;;;-0.50;99.90;;;;;;4993863;28;20185;-89
2021/12/04 00:49:18;;;;;;;4.77;4.00;;;-0.60;99.90;;;;;;4994638;28;20217;-87
2021/12/04 00:51:52;;;;;;;4.17;3.87;;;-0.60;99.90;;;;;;5007993;28;20265;-86
2021/12/04 00:54:18;;;;;;;5.37;3.90;;;-0.50;99.90;;;;;;5017560;28;20146;-88
2021/12/04 00:56:45;;;;;;;3.83;3.43;;;-0.60;99.90;;;;;;5005916;28;20181;-88
2021/12/04 00:59:11;;;;;;;5.60;4.27;;;-0.60;99.90;;;;;;4994352;28;20184;-86
2021/12/04 01:01:39;;;;;;;5.27;4.10;;;-0.50;99.90;;;;;;4994228;28;20177;-88
2021/12/04 01:04:12;;;;;;;4.07;3.60;;;-0.60;99.90;;;;;;4994688;28;20205;-88
2021/12/04 01:06:39;;;;;;;4.83;4.37;;;-0.50;99.90;;;;;;4992803;28;20599;-87
2021/12/04 01:09:07;;;;;;;7.53;4.17;;;-0.50;99.90;;;;;;4976599;28;20704;-88
2021/12/04 01:11:33;;;;;;;5.67;4.63;;;-0.60;99.90;;;;;;4993736;28;20173;-89
2021/12/04 01:13:59;;;;;;;6.93;5.03;;;-0.60;99.90;;;;;;4994530;28;20174;-88
2021/12/04 01:16:25;;;;;;;7.27;5.00;;;-0.60;99.90;;;;;;4979328;28;20174;-88
2021/12/04 01:18:51;;;;;;;7.33;4.50;;;-0.60;99.90;;;;;;4993075;28;20256;-89
2021/12/04 01:21:16;;;;;;;6.83;4.80;;;-0.30;99.90;;;;;;4993054;28;20187;-85
2021/12/04 01:23:42;;;;;;;5.00;4.50;;;-0.20;99.90;;;;;;4992770;28;20201;-85
2021/12/04 01:26:08;;;;;;;6.17;5.27;;;-0.30;99.90;;;;;;4992972;28;20244;-86
2021/12/04 01:28:34;;;;;;;5.13;4.50;;;-0.40;99.90;;;;;;4992942;28;20537;-86
2021/12/04 01:31:00;;;;;;;5.93;4.67;;;-0.50;99.90;;;;;;4992471;28;21063;-85
2021/12/04 01:33:26;;;;;;;5.10;4.57;;;-0.50;99.90;;;;;;4992683;28;20229;-85
2021/12/04 01:35:51;;;;;;;5.27;4.70;;;-0.50;99.90;;;;;;4975121;28;20265;-86
2021/12/04 01:38:17;;;;;;;5.63;4.70;;;-0.70;99.90;;;;;;4975047;28;20553;-85
2021/12/04 01:40:44;;;;;;;5.80;4.77;;;-0.90;99.90;;;;;;4993306;28;21037;-84
2021/12/04 01:43:10;;;;;;;5.77;4.63;;;-1.00;99.90;;;;;;4992034;28;20209;-86
2021/12/04 01:45:36;;;;;;;5.03;4.63;;;-0.90;99.90;;;;;;4975177;28;20185;-86
2021/12/04 01:48:02;;;;;;;5.00;4.50;;;-0.90;99.90;;;;;;4992961;28;20179;-84
2021/12/04 01:50:30;;;;;;;6.43;4.87;;;-1.10;99.90;;;;;;4975210;28;20181;-85
2021/12/04 01:52:58;;;;;;;5.37;4.80;;;-1.10;99.90;;;;;;4993106;28;20182;-85
2021/12/04 01:55:30;;;;;;;4.90;4.50;;;-1.00;99.90;;;;;;4979436;28;20177;-85
2021/12/04 01:58:00;;;;;;;5.63;4.70;;;-1.00;99.90;;;;;;4993599;28;20177;-86
2021/12/04 02:00:26;;;;;;;6.03;5.43;;;-0.90;99.90;;;;;;4992488;28;20268;-86
2021/12/04 02:02:52;;;;;;;4.87;4.47;;;-0.80;99.90;;;;;;4974632;28;20178;-85
2021/12/04 02:05:18;;;;;;;6.97;4.37;;;-0.80;99.90;;;;;;4992764;28;20185;-84
2021/12/04 02:07:45;;;;;;;7.23;4.87;;;-0.70;99.90;;;;;;4992398;28;20174;-84
2021/12/04 02:10:11;;;;;;;5.07;4.57;;;-0.70;99.90;;;;;;4992489;28;20233;-85
2021/12/04 02:12:38;;;;;;;5.67;5.07;;;-0.80;99.90;;;;;;4994582;28;20182;-85
2021/12/04 02:15:05;;;;;;;4.93;4.43;;;-0.80;99.90;;;;;;4992729;28;20180;-88
2021/12/04 02:17:32;;;;;;;6.20;5.03;;;-0.70;99.90;;;;;;4993053;28;20183;-88
2021/12/04 02:19:58;;;;;;;5.37;4.87;;;-0.70;99.90;;;;;;4993335;28;20174;-88
2021/12/04 02:22:23;;;;;;;5.60;5.00;;;-0.70;99.90;;;;;;4993170;28;20604;-90
2021/12/04 02:24:49;;;;;;;7.07;5.03;;;-0.60;99.90;;;;;;4992990;28;20889;-89
2021/12/04 02:27:15;;;;;;;5.43;4.90;;;-0.50;99.90;;;;;;4975024;28;20209;-89
2021/12/04 02:29:48;;;;;;;7.90;6.47;;;-0.40;99.90;;;;;;4974632;28;20229;-90
2021/12/04 02:32:18;;;;;;;11.93;7.23;;;-0.40;99.90;;;;;;4992380;28;20931;-84
2021/12/04 02:34:44;;;;;;;10.20;8.17;;;-0.40;99.90;;;;;;4992636;28;20179;-89
2021/12/04 02:37:10;;;;;;;11.27;8.20;;;-0.50;99.90;;;;;;4992786;28;20229;-87
2021/12/04 02:39:38;;;;;;;10.73;8.37;;;-0.50;99.90;;;;;;4975514;28;20587;-88
2021/12/04 02:42:18;;;;;;;15.23;8.93;;;-0.50;99.90;;;;;;5000929;28;20286;-90
2021/12/04 02:44:45;;;;;;;11.90;8.87;;;-0.40;99.90;;;;;;5016317;28;20261;-88
2021/12/04 02:47:11;;;;;;;11.03;8.17;;;-0.50;99.90;;;;;;5008415;28;20174;-89
2021/12/04 02:49:37;;;;;;;11.90;8.80;;;-0.50;99.90;;;;;;4993186;28;20190;-89
2021/12/04 02:52:04;;;;;;;12.87;8.80;;;-0.60;99.90;;;;;;4974927;28;20181;-89
2021/12/04 02:54:31;;;;;;;16.20;9.20;;;-0.50;99.90;;;;;;4992279;28;20264;-88
2021/12/04 02:56:57;;;;;;;12.97;9.93;;;-0.50;99.90;;;;;;4993904;28;20906;-89
2021/12/04 02:59:24;;;;;;;12.23;9.77;;;-0.60;99.90;;;;;;4984918;28;20186;-87
2021/12/04 03:01:53;;;;;;;12.20;8.60;;;-0.60;99.90;;;;;;5003182;28;20193;-88
2021/12/04 03:04:21;;;;;;;11.97;9.93;;;-0.60;99.90;;;;;;5006878;28;20216;-86
2021/12/04 03:06:47;;;;;;;13.30;9.70;;;-0.50;99.90;;;;;;5001630;28;20166;-88
2021/12/04 03:09:15;;;;;;;11.80;9.60;;;-0.50;99.90;;;;;;4996801;28;20208;-89
2021/12/04 03:11:41;;;;;;;12.90;9.50;;;-0.40;99.90;;;;;;4994170;28;20174;-88
2021/12/04 03:14:08;;;;;;;11.83;9.00;;;-0.50;99.90;;;;;;4993005;28;20186;-90
2021/12/04 03:16:35;;;;;;;12.03;8.47;;;-0.50;99.90;;;;;;4979340;28;20182;-89
2021/12/04 03:19:02;;;;;;;9.40;6.93;;;-0.60;99.90;;;;;;4996953;28;20268;-89
2021/12/04 03:21:28;;;;;;;9.83;6.77;;;-0.60;99.90;;;;;;4996527;28;20641;-89
2021/12/04 03:24:03;;;;;;;8.87;6.67;;;-0.60;99.90;;;;;;4996167;28;20212;-87
2021/12/04 03:26:29;;;;;;;9.90;6.07;;;-0.50;99.90;;;;;;4995725;28;20647;-88
2021/12/04 03:28:57;;;;;;;4.70;4.30;;;-0.70;99.90;;;;;;4995262;28;20182;-87
2021/12/04 03:32:07;;;;;;;4.27;3.90;;;-0.70;99.90;;;;;;4977760;28;20237;-86
2021/12/04 03:42:24;;;;;;;5.63;3.87;;;-0.50;99.90;;;;;;4996796;28;20292;-88
2021/12/04 03:44:52;;;;;;;3.67;3.37;;;-0.50;99.90;;;;;;4995976;28;20256;-88
2021/12/04 03:47:22;;;;;;;6.00;3.90;;;-0.50;99.90;;;;;;4995680;28;20691;-89
2021/12/04 03:49:49;;;;;;;5.57;4.10;;;-0.50;99.90;;;;;;4995484;28;20269;-88
2021/12/04 03:52:15;;;;;;;4.73;4.20;;;-0.40;99.90;;;;;;4994663;28;20170;-88
2021/12/04 03:54:42;;;;;;;5.17;4.67;;;-0.40;99.90;;;;;;4994821;28;20177;-86
2021/12/04 03:57:10;;;;;;;6.43;4.70;;;-0.50;99.90;;;;;;4994867;28;20724;-86
2021/12/04 03:59:39;;;;;;;5.10;4.60;;;-0.60;99.90;;;;;;4994230;28;20565;-89
2021/12/04 04:02:09;;;;;;;5.00;4.53;;;-0.60;99.90;;;;;;4994634;28;20169;-86
2021/12/04 04:04:35;;;;;;;5.23;4.80;;;-0.60;99.90;;;;;;4994358;28;20209;-89
2021/12/04 04:07:01;;;;;;;6.70;5.47;;;-0.60;99.90;;;;;;4994581;28;20170;-90
2021/12/04 04:09:28;;;;;;;5.43;4.50;;;-0.60;99.90;;;;;;4994511;28;20582;-89
2021/12/04 04:11:54;;;;;;;5.73;5.23;;;-0.70;99.90;;;;;;4994821;28;20221;-89
2021/12/04 04:14:20;;;;;;;4.67;4.27;;;-0.70;99.90;;;;;;4994355;28;20709;-88
2021/12/04 04:16:45;;;;;;;4.83;4.07;;;-0.70;99.90;;;;;;4994522;28;20245;-89
2021/12/04 04:19:11;;;;;;;4.30;4.00;;;-0.70;99.90;;;;;;4994805;28;20173;-90
2021/12/04 04:21:40;;;;;;;4.00;3.60;;;-0.70;99.90;;;;;;4994606;28;20181;-90
2021/12/04 04:24:07;;;;;;;4.33;3.90;;;-0.90;99.90;;;;;;4994192;28;20209;-89
2021/12/04 04:26:33;;;;;;;6.70;3.83;;;-0.90;99.90;;;;;;4994003;28;20170;-89
2021/12/04 04:28:59;;;;;;;4.57;4.17;;;-1.10;99.90;;;;;;4993988;28;20244;-89
2021/12/04 04:31:25;;;;;;;5.33;3.97;;;-1.10;99.90;;;;;;4994524;28;20170;-88
2021/12/04 04:33:56;;;;;;;4.27;3.70;;;-1.10;99.90;;;;;;5014567;28;20213;-89
2021/12/04 04:36:39;;;;;;;5.13;4.13;;;-1.10;99.90;;;;;;5020695;28;20142;-88
2021/12/04 04:58:27;;;;;;;4.63;3.60;;;-0.70;99.90;;;;;;4993890;28;20176;-86
2021/12/04 05:11:46;;;;;;;6.80;3.67;;;-0.70;99.90;;;;;;4993614;28;20258;-85
2021/12/04 05:14:19;;;;;;;3.60;3.30;;;-0.60;99.90;;;;;;4992984;28;20249;-85
2021/12/04 05:16:58;;;;;;;6.07;3.50;;;-0.70;99.90;;;;;;4993083;28;20193;-87
2021/12/04 05:19:27;;;;;;;6.17;3.37;;;-0.80;99.90;;;;;;4975753;28;20249;-87
2021/12/04 05:21:54;;;;;;;4.10;3.27;;;-0.70;99.90;;;;;;4993137;28;20709;-87
2021/12/04 05:24:21;;;;;;;4.87;3.70;;;-0.70;99.90;;;;;;4993010;28;20205;-86
2021/12/04 05:26:48;;;;;;;3.90;3.50;;;-0.60;99.90;;;;;;4993030;28;20173;-88
2021/12/04 05:29:14;;;;;;;6.07;3.70;;;-0.60;99.90;;;;;;4992809;28;20709;-86
2021/12/04 05:31:39;;;;;;;6.13;3.53;;;-0.60;99.90;;;;;;4993024;28;20233;-86
2021/12/04 05:34:05;;;;;;;4.33;3.50;;;-0.50;99.90;;;;;;4992686;28;20186;-87
2021/12/04 05:36:31;;;;;;;4.03;3.10;;;-0.60;99.90;;;;;;4992440;28;20178;-85
2021/12/04 05:38:57;;;;;;;3.83;3.53;;;-0.90;99.90;;;;;;4992231;28;20181;-87
2021/12/04 05:41:24;;;;;;;3.60;3.20;;;-0.70;99.90;;;;;;4975231;28;20225;-87
2021/12/04 05:43:50;;;;;;;3.63;3.33;;;-0.80;99.70;;;;;;4992473;28;20243;-86
2021/12/04 05:46:18;;;;;;;4.70;3.43;;;-0.70;99.60;;;;;;4974978;28;20649;-87
2021/12/04 05:56:14;;;;;;;3.87;3.57;;;-0.60;99.60;;;;;;4992461;28;20237;-86
2021/12/04 05:58:40;;;;;;;4.07;3.67;;;-0.80;99.50;;;;;;4992278;28;20174;-87
2021/12/04 06:01:06;;;;;;;3.37;3.07;;;-0.90;99.50;;;;;;4992362;28;20170;-87
2021/12/04 06:03:32;;;;;;;6.53;3.37;;;-0.90;99.30;;;;;;4991188;28;20736;-89
2021/12/04 06:05:58;;;;;;;3.60;3.13;;;-0.90;99.20;;;;;;4992344;28;20534;-89
2021/12/04 06:08:24;;;;;;;3.20;2.90;;;-1.00;99.20;;;;;;4974659;28;20211;-90
2021/12/04 06:10:52;;;;;;;3.73;3.40;;;-0.80;99.90;;;;;;4992525;28;20182;-88
2021/12/04 06:13:18;;;;;;;4.30;3.37;;;-0.90;99.20;;;;;;4992434;28;20184;-90
2021/12/04 06:15:44;;;;;;;3.63;3.33;;;-0.80;99.70;;;;;;4974794;28;20228;-88
2021/12/04 06:18:10;;;;;;;3.37;3.17;;;-0.80;99.30;;;;;;4992429;28;20198;-87
2021/12/04 06:23:22;;;;;;;3.90;3.40;;;-0.90;99.60;;;;;;5000794;28;20177;-86
2021/12/04 06:25:48;;;;;;;4.47;3.30;;;-0.80;99.40;;;;;;5015805;28;20212;-86
2021/12/04 06:28:15;;;;;;;3.70;3.23;;;-0.90;99.30;;;;;;5007425;28;20198;-86
2021/12/04 06:30:42;;;;;;;4.40;3.33;;;-1.10;99.40;;;;;;4993208;28;20200;-86
2021/12/04 06:33:10;;;;;;;3.80;3.50;;;-1.20;99.80;;;;;;4993990;28;20178;-86
2021/12/04 06:35:40;;;;;;;5.63;3.70;;;-1.20;99.60;;;;;;5004120;28;20170;-87
2021/12/04 06:38:11;;;;;;;3.53;3.00;;;-1.10;99.70;;;;;;5003317;28;20170;-85
2021/12/04 06:40:38;;;;;;;3.73;3.43;;;-1.00;99.70;;;;;;5000349;28;20242;-88
2021/12/04 06:43:06;;;;;;;4.93;3.50;;;-0.90;99.40;;;;;;4974587;28;20185;-86
2021/12/04 06:45:34;;;;;;;3.73;3.37;;;-0.80;99.40;;;;;;4991389;28;20185;-86
2021/12/04 06:48:06;;;;;;;4.93;4.10;;;-0.80;99.30;;;;;;4991544;28;20185;-87
2021/12/04 06:53:32;;;;;;;3.73;3.13;;;-0.80;99.50;;;;;;4992207;28;20200;-86
2021/12/04 06:55:59;;;;;;;5.27;3.63;;;-0.70;99.80;;;;;;4991491;28;20264;-85
2021/12/04 06:58:27;;;;;;;4.03;3.63;;;-0.70;99.60;;;;;;4991481;28;20170;-86
2021/12/04 07:00:54;;;;;;;3.50;3.20;;;-0.70;99.80;;;;;;4973990;28;20178;-88
2021/12/04 07:03:20;;;;;;;5.33;3.70;;;-0.60;99.70;;;;;;4973888;28;20178;-87
2021/12/04 07:05:47;;;;;;;4.77;4.23;;;-0.60;99.50;;;;;;4973987;28;20192;-87
2021/12/04 07:08:13;;;;;;;6.50;4.43;;;-0.60;99.70;;;;;;4974165;28;20177;-89
2021/12/04 07:10:39;;;;;;;6.93;4.00;;;-0.50;99.80;;;;;;4974469;28;20231;-86
2021/12/04 07:13:06;;;;;;;3.70;3.40;;;-0.50;99.70;;;;;;4973965;28;20178;-86
2021/12/04 07:15:33;;;;;;;3.70;3.40;;;-0.50;99.90;;;;;;4991276;28;20178;-87
2021/12/04 07:18:00;;;;;;;4.50;3.67;;;-0.50;99.80;;;;;;4973968;28;20312;-89
2021/12/04 07:20:26;;;;;;;6.67;3.70;;;-0.40;99.90;;;;;;4991414;28;20181;-89
2021/12/04 07:22:52;;;;;;;3.83;3.53;;;-0.40;99.90;;;;;;4974167;28;20549;-88
2021/12/04 07:25:18;;;;;;;3.90;3.40;;;-0.20;99.90;;;;;;4991937;28;20218;-89
2021/12/04 07:27:44;;;;;;;4.37;3.97;;;-0.20;99.50;;;;;;4974577;28;20205;-89
2021/12/04 07:30:10;;;;;;;4.17;3.70;;;-0.10;99.50;;;;;;4973895;28;20201;-87
2021/12/04 07:32:37;;;;;;;4.57;3.60;;;0.00;99.50;;;;;;4991864;28;20174;-86
2021/12/04 07:35:04;;;;;;;4.23;3.57;;;0.10;99.20;;;;;;4991738;28;20621;-87
2021/12/04 07:37:30;;;;;;;5.97;3.90;;;0.10;98.90;;;;;;4991665;28;20205;-87
2021/12/04 07:39:55;;;;;;;9.23;6.80;;;0.10;99.10;;;;;;4991109;28;20218;-86
2021/12/04 07:42:21;;;;;;;9.10;7.30;;;0.20;99.90;;;;;;4991409;28;20541;-86
2021/12/04 07:44:47;;;;;;;8.63;7.73;;;0.30;99.90;;;;;;4973489;28;20700;-85
2021/12/04 07:47:14;;;;;;;9.03;7.10;;;0.30;99.90;;;;;;4973810;28;20182;-86
2021/12/04 07:49:40;;;;;;;12.23;8.53;;;0.40;99.90;;;;;;4990850;28;20170;-86
2021/12/04 07:52:10;;;;;;;10.23;8.50;;;0.40;99.90;;;;;;4991808;28;20226;-89
2021/12/04 07:54:37;;;;;;;11.67;8.70;;;0.40;99.90;;;;;;4973727;28;20190;-88
2021/12/04 07:57:08;;;;;;;11.03;7.60;;;0.40;99.90;;;;;;4991798;28;20660;-89
2021/12/04 07:59:34;;;;;;;11.83;8.40;;;0.40;99.90;;;;;;4991499;28;20178;-90
2021/12/04 08:02:00;;;;;;;9.87;7.97;;;0.40;99.90;;;;;;4994550;28;20175;-89
2021/12/04 08:04:29;;;;;;;11.73;8.53;;;0.50;99.90;;;;;;4996825;28;20220;-89
2021/12/04 08:06:55;;;;;;;11.10;8.27;;;0.40;99.90;;;;;;4985265;28;20243;-89
2021/12/04 08:09:21;;;;;;;11.57;8.27;;;0.50;99.90;;;;;;4980539;28;20178;-87
2021/12/04 08:11:50;;;;;;;10.50;8.30;;;0.60;99.90;;;;;;4996848;28;20182;-89
2021/12/04 08:14:19;;;;;;;10.97;8.23;;;0.60;99.90;;;;;;4983327;28;20186;-89
2021/12/04 08:16:47;;;;;;;12.37;9.67;;;0.70;99.90;;;;;;5009949;28;20186;-86
2021/12/04 08:19:15;;;;;;;18.13;9.80;;;0.70;99.90;;;;;;5017035;28;20217;-87
2021/12/04 08:21:41;;;;;;;12.60;9.13;;;0.70;99.90;;;;;;5013415;28;20175;-92
2021/12/04 08:24:08;;;;;;;11.63;9.50;;;0.80;99.90;;;;;;5006121;28;20218;-90
2021/12/04 08:26:35;;;;;;;11.63;9.67;;;0.80;99.90;;;;;;5003264;28;20174;-87
2021/12/04 08:29:02;;;;;;;10.27;8.90;;;0.90;99.90;;;;;;5003819;28;20190;-92
2021/12/04 08:31:30;;;;;;;13.00;9.27;;;0.90;99.90;;;;;;4996578;28;20690;-91
2021/12/04 08:33:56;;;;;;;13.53;8.40;;;1.20;99.90;;;;;;4998732;28;20260;-90
2021/12/04 08:36:22;;;;;;;11.97;8.40;;;1.30;99.90;;;;;;4979058;28;20491;-92
2021/12/04 08:38:49;;;;;;;14.17;8.63;;;1.50;99.90;;;;;;4996075;28;20215;-91
2021/12/04 08:41:16;;;;;;;11.67;8.83;;;1.80;99.90;;;;;;4995290;28;20754;-92
2021/12/04 08:43:42;;;;;;;10.53;8.43;;;2.00;99.90;;;;;;4995653;28;20286;-91
2021/12/04 08:46:08;;;;;;;12.03;8.20;;;2.00;99.90;;;;;;4995292;28;20315;-92
2021/12/04 08:48:34;;;;;;;9.30;7.00;;;2.00;99.90;;;;;;4995243;28;20174;-89
2021/12/04 08:51:01;;;;;;;9.27;6.17;;;1.90;99.90;;;;;;4994280;28;20175;-88
2021/12/04 08:53:27;;;;;;;12.10;6.37;;;1.80;99.90;;;;;;4993559;28;20733;-86
2021/12/04 08:55:53;;;;;;;10.87;6.80;;;1.70;99.90;;;;;;4994049;28;20177;-85
2021/12/04 08:58:20;;;;;;;9.60;6.97;;;1.80;99.90;;;;;;4993631;28;20184;-85
2021/12/04 09:00:58;;;;;;;8.97;6.53;;;1.80;99.90;;;;;;4995875;28;20244;-85
2021/12/04 09:03:31;;;;;;;9.47;7.00;;;1.70;99.90;;;;;;4998045;28;20251;-86
2021/12/04 09:05:58;;;;;;;9.27;7.53;;;1.70;99.90;;;;;;4999127;28;20163;-87
2021/12/04 09:08:27;;;;;;;9.43;7.40;;;1.60;99.90;;;;;;4996000;28;20178;-86
2021/12/04 09:10:54;;;;;;;12.57;7.67;;;1.70;99.90;;;;;;4988613;28;20580;-87
2021/12/04 09:13:20;;;;;;;9.17;8.20;;;1.80;99.90;;;;;;5000408;28;20724;-87
2021/12/04 09:15:48;;;;;;;10.00;7.80;;;1.70;99.90;;;;;;4995429;28;20715;-87
2021/12/04 09:18:14;;;;;;;9.80;7.57;;;1.70;99.90;;;;;;4995017;28;20227;-90
2021/12/04 09:20:40;;;;;;;8.50;7.60;;;1.70;99.90;;;;;;4977225;28;20187;-89
2021/12/04 09:23:15;;;;;;;9.97;7.63;;;1.70;99.90;;;;;;4993785;28;20207;-90
2021/12/04 09:25:45;;;;;;;11.43;7.33;;;1.80;99.90;;;;;;4976407;28;20179;-88
2021/12/04 09:28:27;;;;;;;9.33;7.17;;;1.70;99.90;;;;;;4993798;28;20222;-88
2021/12/04 09:36:31;;;;;;;12.40;7.47;;;1.70;99.90;;;;;;4994717;28;20166;-92
2021/12/04 10:06:27;;;;;;;11.43;7.93;;;2.30;99.90;;;;;;4995994;28;20657;-90
2021/12/04 10:12:33;;;;;;;12.73;7.70;;;2.50;99.80;;;;;;4991836;28;20203;-87
2021/12/04 10:20:46;;;;;;;15.73;6.97;;;2.50;98.50;;;;;;5004532;28;20180;-89
2021/12/04 10:33:56;;;;;;;8.03;6.40;;;2.80;98.40;;;;;;4974905;28;20179;-90
2021/12/04 10:36:28;;;;;;;7.50;6.63;;;2.80;98.60;;;;;;4973906;28;20173;-87
2021/12/04 10:38:55;;;;;;;9.20;6.97;;;2.80;98.70;;;;;;4974164;28;20260;-87
2021/12/04 10:41:32;;;;;;;10.33;6.57;;;2.80;98.60;;;;;;4973797;28;20233;-91
2021/12/04 10:44:20;;;;;;;8.83;7.33;;;2.80;98.90;;;;;;4977113;28;20598;-93
2021/12/04 10:47:05;;;;;;;13.80;7.03;;;2.80;99.10;;;;;;4977689;28;20667;-93
2021/12/04 10:49:52;;;;;;;8.77;5.93;;;2.80;98.90;;;;;;4994475;28;20608;-93
2021/12/04 11:01:02;;;;;;;8.53;5.87;;;2.80;98.10;;;;;;4993269;28;20184;-90
2021/12/04 11:46:41;;;;;;;9.33;6.20;;;3.70;97.50;;;;;;5003442;28;20196;-87
2021/12/04 11:49:09;;;;;;;10.37;6.10;;;3.70;97.60;;;;;;5002762;28;20574;-90
2021/12/04 11:51:56;;;;;;;8.83;5.80;;;3.90;96.90;;;;;;4999262;28;20173;-91
2021/12/04 11:54:27;;;;;;;6.43;5.80;;;4.00;97.30;;;;;;4999616;28;20204;-93
2021/12/04 11:57:02;;;;;;;6.10;5.50;;;4.20;96.80;;;;;;5001818;28;20178;-86
2021/12/04 11:59:30;;;;;;;5.70;5.10;;;4.20;97.10;;;;;;5007973;28;20221;-86
2021/12/04 12:02:01;;;;;;;5.33;4.70;;;4.30;97.20;;;;;;5016948;28;20220;-86
2021/12/04 12:04:40;;;;;;;5.70;5.20;;;4.40;96.90;;;;;;5010189;28;20232;-90
2021/12/04 12:07:14;;;;;;;6.77;5.40;;;4.40;97.00;;;;;;4997074;28;20172;-87
2021/12/04 12:09:40;;;;;;;7.13;5.50;;;4.40;96.80;;;;;;4977695;28;20192;-88
2021/12/04 12:12:11;;;;;;;6.10;5.03;;;4.40;97.30;;;;;;4977364;28;20686;-90
2021/12/04 12:14:51;;;;;;;7.07;5.00;;;4.50;96.70;;;;;;4994811;28;20194;-86
2021/12/04 12:17:33;;;;;;;6.17;5.10;;;4.40;96.60;;;;;;4994780;28;20525;-88
2021/12/04 12:20:00;;;;;;;8.90;5.90;;;4.20;96.60;;;;;;4977633;28;20182;-88
2021/12/04 12:25:17;;;;;;;5.77;5.17;;;4.10;97.20;;;;;;4994739;28;20209;-90
2021/12/04 12:31:41;;;;;;;8.03;5.77;;;4.00;97.30;;;;;;4995261;28;20176;-87
2021/12/04 12:34:12;;;;;;;7.87;5.43;;;3.70;97.10;;;;;;4994807;28;20193;-89
2021/12/04 12:36:27;;;;;;;6.40;5.40;;;3.60;97.30;;;;;;4983617;28;20201;-88
2021/12/04 12:38:57;;;;;;;7.40;5.40;;;3.50;97.20;;;;;;4977695;28;20214;-87
2021/12/04 12:41:38;;;;;;;5.80;5.20;;;3.50;97.50;;;;;;5000380;28;20276;-86
2021/12/04 12:44:25;;;;;;;7.60;5.33;;;3.40;96.90;;;;;;4999683;28;20201;-87
2021/12/04 12:46:55;;;;;;;5.37;4.87;;;3.40;96.80;;;;;;4995462;28;20165;-86
2021/12/04 12:49:28;;;;;;;6.57;5.20;;;3.40;96.80;;;;;;4977724;28;20920;-87
2021/12/04 12:52:05;;;;;;;8.73;4.93;;;3.30;96.90;;;;;;4977498;28;20553;-92
2021/12/04 12:54:37;;;;;;;5.33;4.83;;;3.30;97.20;;;;;;4994687;28;20188;-90
2021/12/04 12:57:39;;;;;;;8.93;5.23;;;3.20;97.10;;;;;;4977467;28;20192;-92
2021/12/04 13:14:10;;;;;;;5.93;5.33;;;3.10;98.00;;;;;;5006801;28;20302;-90
2021/12/04 13:16:37;;;;;;;5.80;5.17;;;3.20;98.30;;;;;;4995273;28;20247;-90
2021/12/04 13:19:08;;;;;;;6.77;5.13;;;3.20;98.30;;;;;;4998287;28;20183;-91
2021/12/04 13:21:38;;;;;;;5.63;5.10;;;3.20;98.50;;;;;;4996318;28;20216;-92
2021/12/04 13:24:05;;;;;;;5.23;4.73;;;3.20;98.00;;;;;;4995707;28;20244;-93
2021/12/04 13:26:33;;;;;;;5.50;4.97;;;3.20;97.80;;;;;;4994567;28;20193;-92
2021/12/04 13:29:05;;;;;;;5.57;5.07;;;3.10;98.00;;;;;;4994323;28;20189;-90
2021/12/04 13:31:34;;;;;;;6.70;5.40;;;3.20;98.10;;;;;;4976836;28;20237;-92
2021/12/04 13:34:03;;;;;;;6.10;4.90;;;3.30;98.20;;;;;;4994448;28;20184;-92
2021/12/04 13:36:30;;;;;;;7.17;5.87;;;3.20;98.50;;;;;;4994553;28;20198;-92
2021/12/04 13:38:59;;;;;;;9.20;6.07;;;3.20;97.70;;;;;;4994165;28;20253;-88
2021/12/04 13:41:28;;;;;;;7.67;6.40;;;3.20;97.90;;;;;;4994203;28;20227;-92
2021/12/04 13:43:56;;;;;;;10.30;6.50;;;3.10;98.20;;;;;;4995652;28;20217;-91
2021/12/04 13:46:23;;;;;;;12.10;7.27;;;3.10;98.60;;;;;;5002977;28;20185;-89
2021/12/04 13:48:50;;;;;;;10.30;6.73;;;3.10;98.30;;;;;;4988035;28;20223;-86
2021/12/04 13:51:16;;;;;;;12.50;7.47;;;3.10;98.20;;;;;;5009032;28;20150;-86
2021/12/04 13:53:44;;;;;;;10.80;7.03;;;3.10;98.40;;;;;;5013750;28;20182;-88
2021/12/04 13:56:16;;;;;;;11.50;7.27;;;3.10;98.80;;;;;;4995964;28;20192;-88
2021/12/04 13:58:49;;;;;;;10.87;7.87;;;3.20;99.10;;;;;;4975118;28;20181;-87
2021/12/04 14:01:16;;;;;;;8.70;6.80;;;3.20;99.30;;;;;;4992885;28;20182;-86
2021/12/04 14:03:42;;;;;;;9.03;7.03;;;3.20;99.70;;;;;;4993195;28;20224;-88
2021/12/04 14:06:17;;;;;;;12.30;7.37;;;3.20;99.90;;;;;;4992714;28;20174;-91
2021/12/04 14:08:54;;;;;;;7.83;6.80;;;3.00;99.90;;;;;;4992449;28;20173;-87
2021/12/04 14:11:31;;;;;;;9.60;6.83;;;3.10;99.90;;;;;;4994271;28;20165;-87
2021/12/04 14:13:57;;;;;;;6.83;6.17;;;3.10;99.90;;;;;;4992918;28;20156;-87
2021/12/04 14:16:27;;;;;;;10.87;6.50;;;3.20;99.90;;;;;;4975523;28;20673;-88
2021/12/04 14:18:53;;;;;;;7.87;6.97;;;3.20;99.90;;;;;;4975555;28;20185;-88
2021/12/04 14:21:18;;;;;;;8.43;7.13;;;3.20;99.90;;;;;;4992894;28;20236;-86
2021/12/04 14:23:48;;;;;;;7.90;7.10;;;3.20;99.90;;;;;;4993564;28;20221;-91
2021/12/04 14:26:15;;;;;;;10.57;6.90;;;3.20;99.90;;;;;;4978230;28;20185;-88
2021/12/04 14:28:44;;;;;;;7.73;7.03;;;3.20;99.90;;;;;;4994187;28;20185;-91
2021/12/04 14:31:20;;;;;;;10.47;6.80;;;3.10;99.90;;;;;;4973702;28;20220;-93
2021/12/04 14:33:47;;;;;;;7.63;6.83;;;3.00;99.90;;;;;;4956810;28;20581;-92
2021/12/04 14:36:26;;;;;;;12.10;7.30;;;3.00;99.90;;;;;;4956246;28;20204;-91
2021/12/04 14:38:54;;;;;;;8.20;7.40;;;2.90;99.90;;;;;;4974167;28;20161;-92
2021/12/04 14:41:21;;;;;;;7.73;7.03;;;2.90;99.90;;;;;;4976773;28;20230;-91
2021/12/04 14:43:49;;;;;;;7.80;7.07;;;2.90;99.90;;;;;;4982069;28;20205;-93
2021/12/04 14:46:16;;;;;;;7.90;7.10;;;2.90;99.90;;;;;;4998059;28;20315;-92
2021/12/04 14:48:49;;;;;;;7.83;6.87;;;2.90;99.90;;;;;;4976596;28;20211;-93
2021/12/04 14:51:18;;;;;;;8.87;6.90;;;2.80;99.90;;;;;;4994104;28;20548;-92
2021/12/04 14:53:51;;;;;;;9.80;7.23;;;2.80;99.90;;;;;;4993527;28;20592;-93
2021/12/04 14:56:19;;;;;;;7.50;6.80;;;2.70;99.90;;;;;;4977720;28;20240;-92
2021/12/04 14:58:46;;;;;;;10.00;7.10;;;2.70;99.90;;;;;;4993146;28;20191;-90
2021/12/04 15:01:15;;;;;;;8.23;6.80;;;2.70;99.90;;;;;;4975430;28;20195;-89
2021/12/04 15:03:49;;;;;;;7.40;6.70;;;2.70;99.90;;;;;;4992704;28;20245;-89
2021/12/04 15:06:16;;;;;;;7.67;6.77;;;2.60;99.90;;;;;;4975603;28;20177;-88
2021/12/04 15:08:54;;;;;;;7.37;6.47;;;2.60;99.90;;;;;;4974879;28;20268;-87
2021/12/04 15:11:29;;;;;;;7.57;6.93;;;2.50;99.90;;;;;;4996955;28;20172;-92
2021/12/04 15:13:58;;;;;;;11.23;6.57;;;2.60;99.90;;;;;;4978595;28;20175;-88
2021/12/04 15:16:41;;;;;;;7.10;6.43;;;2.60;99.90;;;;;;4996158;28;20310;-87
2021/12/04 15:19:38;;;;;;;10.17;7.90;;;2.60;99.90;;;;;;4985738;28;20183;-88
2021/12/04 15:22:21;;;;;;;10.50;8.10;;;2.60;99.90;;;;;;4981385;28;20188;-89
2021/12/04 15:24:48;;;;;;;8.07;6.50;;;2.70;99.90;;;;;;4996242;28;20206;-88
2021/12/04 15:27:18;;;;;;;14.87;7.87;;;2.60;99.90;;;;;;4979470;28;20180;-88
2021/12/04 15:29:49;;;;;;;8.73;7.03;;;2.50;99.90;;;;;;4996039;28;20260;-87
2021/12/04 15:32:21;;;;;;;9.13;7.27;;;2.50;99.90;;;;;;4980046;28;20210;-88
2021/12/04 15:34:53;;;;;;;10.07;7.03;;;2.50;99.90;;;;;;4980919;28;20172;-87
2021/12/04 15:37:40;;;;;;;8.90;7.17;;;2.40;99.90;;;;;;5006314;28;20168;-84
2021/12/04 15:40:23;;;;;;;10.20;7.07;;;2.50;99.90;;;;;;5007036;28;20205;-87
2021/12/04 15:43:00;;;;;;;9.90;7.80;;;2.50;99.90;;;;;;4996649;28;20165;-85
2021/12/04 15:48:33;;;;;;;7.97;7.17;;;2.40;99.90;;;;;;5004780;28;20725;-85
2021/12/04 15:53:58;;;;;;;7.87;6.90;;;2.50;99.90;;;;;;4995900;28;20184;-85
2021/12/04 15:56:32;;;;;;;9.10;7.30;;;2.40;99.90;;;;;;4995768;28;20259;-87
2021/12/04 15:58:59;;;;;;;10.37;7.10;;;2.50;99.90;;;;;;4977977;28;20291;-89
2021/12/04 16:01:29;;;;;;;6.40;5.87;;;2.50;99.90;;;;;;4978260;28;20184;-89
2021/12/04 16:03:55;;;;;;;9.80;7.30;;;2.50;99.90;;;;;;4977164;28;20231;-90
2021/12/04 16:06:35;;;;;;;7.13;6.37;;;2.60;99.90;;;;;;4994444;28;20188;-89
2021/12/04 16:09:01;;;;;;;7.50;6.73;;;2.50;99.90;;;;;;4994945;28;20168;-85
2021/12/04 16:11:37;;;;;;;7.40;6.70;;;2.40;99.90;;;;;;4994763;28;20188;-90
2021/12/04 16:14:05;;;;;;;7.37;6.40;;;2.40;99.90;;;;;;4975517;28;20179;-87